Time;durP1;ratioP1;P1;durP2;ratioP2;P2;SDS_P1;SDS_P2;PMS_P1;PMS_P2;Temp;Humidity;BMP_temperature;BMP_pressure;BME280_temperature;BME280_humidity;BME280_pressure;Samples;Min_cycle;Max_cycle;Signal;HPM_P1;HPM_P2
2021/12/23 05:44:56;;;;;;;16.57;8.90;;;-4.90;92.20;;;;;;4925096;29;20255;-95
2021/12/23 06:03:34;;;;;;;14.43;9.40;;;-4.20;90.90;;;;;;5006383;28;20675;-92
2021/12/23 06:06:01;;;;;;;15.50;8.97;;;-4.30;91.10;;;;;;5013525;28;20599;-91
2021/12/23 06:11:10;;;;;;;15.63;9.30;;;-3.90;92.30;;;;;;5009936;28;20238;-92
2021/12/23 06:13:38;;;;;;;16.00;9.53;;;-3.70;92.00;;;;;;5010118;28;21227;-91
2021/12/23 06:16:11;;;;;;;17.20;8.77;;;-3.80;90.10;;;;;;5009901;28;20316;-91
2021/12/23 06:18:40;;;;;;;13.97;9.57;;;-4.10;90.10;;;;;;5013624;28;20199;-94
2021/12/23 06:21:29;;;;;;;16.43;9.77;;;-4.40;90.10;;;;;;5006938;28;20330;-94
2021/12/23 06:26:40;;;;;;;13.70;9.33;;;-4.60;91.50;;;;;;5008808;28;20223;-94
2021/12/23 06:29:27;;;;;;;16.93;9.17;;;-4.60;91.50;;;;;;4996361;28;20207;-93
2021/12/23 06:31:54;;;;;;;16.27;9.17;;;-4.60;91.20;;;;;;5015533;28;20326;-94
2021/12/23 06:34:21;;;;;;;16.60;9.77;;;-4.60;91.70;;;;;;5004335;28;20206;-93
2021/12/23 06:36:48;;;;;;;15.33;9.30;;;-4.60;91.40;;;;;;5007752;28;20314;-95
2021/12/23 06:44:42;;;;;;;18.17;9.70;;;-4.40;91.70;;;;;;4998949;28;20214;-95
2021/12/23 06:47:09;;;;;;;16.83;9.63;;;-4.50;91.30;;;;;;5002590;28;20257;-94
2021/12/23 06:49:58;;;;;;;16.60;9.97;;;-4.60;91.20;;;;;;4998337;28;20290;-93
2021/12/23 06:52:25;;;;;;;18.43;10.50;;;-4.80;91.10;;;;;;5006111;28;20227;-90
2021/12/23 06:54:56;;;;;;;15.60;10.30;;;-4.80;91.50;;;;;;5001422;28;20203;-89
2021/12/23 06:57:24;;;;;;;18.43;10.27;;;-4.90;91.50;;;;;;5004475;28;20294;-94
2021/12/23 06:59:52;;;;;;;18.97;10.37;;;-4.90;91.60;;;;;;5012644;28;20234;-94
2021/12/23 07:02:19;;;;;;;21.43;11.80;;;-4.90;92.00;;;;;;5037464;23;20211;-93
2021/12/23 07:04:46;;;;;;;19.33;10.33;;;-4.40;94.10;;;;;;4959013;28;20658;-90
2021/12/23 07:07:25;;;;;;;19.40;10.13;;;-4.30;92.70;;;;;;4971816;28;20675;-90
2021/12/23 07:09:54;;;;;;;17.17;9.53;;;-3.90;93.20;;;;;;4976802;28;20200;-90
2021/12/23 07:12:23;;;;;;;20.33;10.80;;;-4.10;90.50;;;;;;4979607;28;20234;-93
2021/12/23 07:14:51;;;;;;;25.37;11.77;;;-4.30;89.70;;;;;;4972060;28;20217;-94
2021/12/23 07:17:39;;;;;;;26.30;12.47;;;-4.40;89.50;;;;;;4969429;28;20250;-94
2021/12/23 07:28:13;;;;;;;29.60;14.30;;;-4.80;90.70;;;;;;4986068;28;20196;-94
2021/12/23 07:33:21;;;;;;;22.07;11.87;;;-4.60;90.60;;;;;;4991739;28;20324;-93
2021/12/23 07:35:50;;;;;;;24.83;11.73;;;-4.60;90.40;;;;;;5000210;28;20235;-91
2021/12/23 07:38:18;;;;;;;21.57;11.23;;;-4.60;90.40;;;;;;4995055;28;20638;-93
2021/12/23 07:54:29;;;;;;;19.83;10.80;;;-4.20;90.30;;;;;;4980970;28;20208;-90
2021/12/23 07:56:58;;;;;;;22.73;11.47;;;-4.10;90.90;;;;;;4974014;28;20235;-91
2021/12/23 08:02:33;;;;;;;16.20;10.13;;;-3.50;90.20;;;;;;4991909;28;20248;-93
2021/12/23 08:08:10;;;;;;;20.00;10.10;;;-2.90;88.10;;;;;;5463697;23;20233;-91
2021/12/23 08:10:39;;;;;;;18.87;10.50;;;-2.70;87.80;;;;;;5013824;28;20208;-90
2021/12/23 08:13:07;;;;;;;17.57;10.87;;;-2.50;87.10;;;;;;5014681;28;20280;-91
2021/12/23 08:15:35;;;;;;;17.63;11.00;;;-2.40;86.50;;;;;;5013033;28;20201;-89
2021/12/23 08:18:02;;;;;;;19.40;10.83;;;-2.50;86.40;;;;;;5002172;28;20310;-90
2021/12/23 08:20:30;;;;;;;19.80;11.60;;;-2.60;88.20;;;;;;5014618;28;20558;-91
2021/12/23 08:22:59;;;;;;;19.23;11.63;;;-2.50;88.80;;;;;;5032940;28;20234;-90
2021/12/23 08:25:26;;;;;;;18.57;10.33;;;-2.30;87.20;;;;;;5005879;28;20199;-93
2021/12/23 08:34:02;;;;;;;17.23;10.53;;;-1.50;84.80;;;;;;5031914;28;20600;-91
2021/12/23 08:41:52;;;;;;;17.53;10.60;;;-1.10;81.00;;;;;;5036235;28;20238;-92
2021/12/23 08:44:40;;;;;;;17.53;11.37;;;-1.00;79.70;;;;;;5050948;28;20199;-89
2021/12/23 08:47:13;;;;;;;15.60;10.03;;;-0.70;80.00;;;;;;5042276;28;20245;-89
2021/12/23 08:49:41;;;;;;;20.50;10.83;;;-0.40;78.10;;;;;;5037249;28;20221;-89
2021/12/23 08:52:09;;;;;;;18.40;11.13;;;-0.40;76.00;;;;;;5033482;28;20380;-88
2021/12/23 08:54:38;;;;;;;18.37;11.03;;;-0.50;76.30;;;;;;5033409;28;20199;-89
2021/12/23 08:57:07;;;;;;;16.20;10.57;;;-0.50;76.80;;;;;;5035192;28;20242;-88
2021/12/23 08:59:38;;;;;;;16.57;10.67;;;-0.60;77.50;;;;;;5033876;28;20292;-89
2021/12/23 09:02:40;;;;;;;16.40;10.33;;;-0.70;78.60;;;;;;5035037;28;20275;-89
2021/12/23 09:10:32;;;;;;;14.13;9.43;;;-0.30;80.20;;;;;;5035955;28;20712;-91
2021/12/23 09:13:08;;;;;;;17.67;10.30;;;0.10;76.70;;;;;;5024345;28;20225;-92
2021/12/23 09:15:40;;;;;;;13.83;9.90;;;0.10;74.40;;;;;;5014407;28;20190;-90
2021/12/23 09:18:17;;;;;;;18.23;10.03;;;0.10;74.10;;;;;;5041920;28;20206;-91
2021/12/23 09:26:28;;;;;;;13.53;8.40;;;-0.70;80.10;;;;;;5026718;28;20290;-91
2021/12/23 09:29:02;;;;;;;13.23;8.23;;;-0.20;76.60;;;;;;5021177;28;20269;-92
2021/12/23 09:34:38;;;;;;;11.73;7.80;;;-0.10;76.20;;;;;;5012604;28;20217;-91
2021/12/23 09:40:02;;;;;;;12.50;7.17;;;-0.30;76.90;;;;;;5024367;28;20272;-91
2021/12/23 09:45:17;;;;;;;9.97;6.57;;;0.10;75.40;;;;;;5036010;28;20214;-90
2021/12/23 09:54:21;;;;;;;14.17;7.60;;;0.50;77.10;;;;;;5028061;28;20299;-91
2021/12/23 09:56:50;;;;;;;11.57;8.27;;;1.00;75.70;;;;;;5030319;28;20257;-90
2021/12/23 10:02:06;;;;;;;13.77;8.27;;;1.60;69.20;;;;;;5034235;28;20221;-91
2021/12/23 10:33:42;;;;;;;12.37;8.10;;;2.00;62.90;;;;;;5161812;27;20570;-90
2021/12/23 10:39:22;;;;;;;12.13;7.97;;;2.50;61.30;;;;;;5085594;28;20192;-89
2021/12/23 10:41:49;;;;;;;12.50;8.60;;;2.70;60.10;;;;;;5073145;28;20228;-89
2021/12/23 10:44:30;;;;;;;13.80;8.33;;;2.70;59.20;;;;;;5084359;28;20272;-90
2021/12/23 10:46:59;;;;;;;13.27;8.60;;;2.80;60.00;;;;;;5090139;28;20228;-91
2021/12/23 11:42:05;;;;;;;13.17;7.87;;;6.50;38.00;;;;;;5006759;28;20674;-89
2021/12/23 11:44:34;;;;;;;10.97;7.00;;;5.70;41.10;;;;;;4990230;28;20196;-88
2021/12/23 11:47:08;;;;;;;16.23;8.10;;;5.10;44.40;;;;;;4993335;28;20216;-92
2021/12/23 11:49:50;;;;;;;17.20;7.50;;;4.90;48.10;;;;;;4993588;28;20230;-91
2021/12/23 11:52:17;;;;;;;14.27;7.67;;;5.10;49.00;;;;;;4998568;28;20322;-92
2021/12/23 11:55:07;;;;;;;11.30;6.93;;;5.20;48.40;;;;;;4995874;28;20642;-92
2021/12/23 12:00:32;;;;;;;10.47;7.07;;;4.90;47.30;;;;;;4989971;28;20705;-92
2021/12/23 12:03:01;;;;;;;17.27;7.50;;;4.80;49.10;;;;;;4997777;28;20216;-92
2021/12/23 12:05:29;;;;;;;10.97;7.33;;;5.20;50.90;;;;;;4996738;28;20212;-92
2021/12/23 12:14:44;;;;;;;10.17;6.03;;;5.70;48.80;;;;;;4993656;28;20208;-90
2021/12/23 12:17:37;;;;;;;11.13;6.60;;;5.70;44.80;;;;;;4991669;28;20236;-90
2021/12/23 12:20:53;;;;;;;13.07;6.90;;;5.80;47.40;;;;;;4991703;28;20582;-91
2021/12/23 12:23:30;;;;;;;13.97;7.03;;;5.60;47.60;;;;;;5045339;28;20198;-90
2021/12/23 12:26:45;;;;;;;8.63;6.33;;;5.70;47.60;;;;;;5047605;28;20202;-90
2021/12/23 12:29:37;;;;;;;13.87;6.50;;;5.70;47.40;;;;;;5017890;28;20546;-91
2021/12/23 12:37:45;;;;;;;11.87;6.60;;;5.30;53.60;;;;;;5027486;28;20221;-91
2021/12/23 12:42:59;;;;;;;11.10;6.37;;;5.40;56.00;;;;;;5057380;28;20196;-93
2021/12/23 12:51:37;;;;;;;20.90;6.53;;;5.60;54.10;;;;;;5034247;28;20206;-92
2021/12/23 12:54:07;;;;;;;15.00;6.03;;;5.70;51.60;;;;;;5036699;28;20293;-87
2021/12/23 12:56:44;;;;;;;15.30;6.80;;;5.70;50.70;;;;;;5029617;28;20199;-89
2021/12/23 12:59:13;;;;;;;14.33;6.80;;;5.50;51.90;;;;;;5032807;28;20200;-88
2021/12/23 13:01:52;;;;;;;16.23;7.10;;;5.50;53.10;;;;;;5064783;28;20222;-88
2021/12/23 13:04:24;;;;;;;16.70;7.53;;;5.70;54.10;;;;;;5064923;28;20539;-87
2021/12/23 13:06:52;;;;;;;21.07;6.77;;;5.80;54.80;;;;;;5035828;28;20218;-88
2021/12/23 13:09:23;;;;;;;14.93;6.73;;;5.80;57.30;;;;;;5031616;28;20202;-85
2021/12/23 13:11:51;;;;;;;20.33;7.03;;;5.80;55.50;;;;;;5036545;28;20269;-88
2021/12/23 13:14:22;;;;;;;17.80;7.77;;;5.70;54.80;;;;;;5040926;28;20259;-89
2021/12/23 13:16:56;;;;;;;24.83;7.30;;;5.70;58.20;;;;;;5047098;28;20241;-89
2021/12/23 13:19:30;;;;;;;20.07;6.77;;;5.70;56.60;;;;;;5070139;28;20276;-87
2021/12/23 13:21:59;;;;;;;15.27;7.00;;;5.60;57.90;;;;;;5051327;28;20645;-90
2021/12/23 13:24:28;;;;;;;13.87;7.00;;;5.60;57.70;;;;;;5055178;28;20292;-90
2021/12/23 13:26:57;;;;;;;16.97;7.63;;;5.70;58.60;;;;;;5038851;28;20597;-86
2021/12/23 13:29:27;;;;;;;12.47;6.53;;;5.70;57.10;;;;;;5047921;28;20194;-86
2021/12/23 13:31:59;;;;;;;17.50;6.40;;;5.70;57.30;;;;;;5058159;28;20295;-85
2021/12/23 13:34:29;;;;;;;14.10;6.40;;;5.70;58.40;;;;;;5057654;28;20617;-85
2021/12/23 13:36:58;;;;;;;11.97;6.10;;;5.50;58.70;;;;;;5056282;28;20217;-86
2021/12/23 13:39:28;;;;;;;18.97;6.60;;;5.50;61.20;;;;;;5057206;28;20257;-86
2021/12/23 13:41:57;;;;;;;11.97;6.20;;;5.40;61.30;;;;;;5057514;28;20253;-89
2021/12/23 13:44:26;;;;;;;12.67;5.73;;;5.30;62.90;;;;;;5057330;28;20256;-89
2021/12/23 13:47:02;;;;;;;18.27;6.90;;;5.20;62.70;;;;;;5056176;28;20221;-88
2021/12/23 13:49:38;;;;;;;64.43;17.33;;;5.20;67.90;;;;;;5056271;28;20724;-88
2021/12/23 13:52:10;;;;;;;15.30;7.20;;;5.40;70.10;;;;;;5037826;28;20241;-87
2021/12/23 13:54:39;;;;;;;19.43;7.00;;;5.50;64.70;;;;;;5056480;28;20198;-89
2021/12/23 13:57:10;;;;;;;18.40;7.07;;;5.50;63.10;;;;;;5038605;28;20241;-88
2021/12/23 13:59:37;;;;;;;28.13;8.30;;;5.50;62.90;;;;;;5055880;28;20204;-87
2021/12/23 14:02:08;;;;;;;16.57;7.27;;;5.50;64.60;;;;;;5056423;28;20249;-86
2021/12/23 14:04:45;;;;;;;18.93;6.50;;;5.40;64.40;;;;;;5057505;28;20196;-86
2021/12/23 14:07:18;;;;;;;23.63;7.47;;;5.50;63.40;;;;;;5057038;28;20221;-86
2021/12/23 14:09:48;;;;;;;22.13;7.93;;;5.50;63.10;;;;;;5057688;28;20280;-89
2021/12/23 14:12:19;;;;;;;18.80;7.47;;;5.50;65.30;;;;;;5057755;28;20232;-87
2021/12/23 14:14:54;;;;;;;18.70;7.43;;;5.50;65.40;;;;;;5044070;28;20189;-89
2021/12/23 14:17:29;;;;;;;19.10;5.87;;;5.40;63.80;;;;;;5057938;28;20225;-89
2021/12/23 14:25:38;;;;;;;21.20;7.03;;;5.40;65.50;;;;;;5055867;28;20192;-89
2021/12/23 14:28:06;;;;;;;17.27;6.53;;;5.50;61.00;;;;;;5054194;28;20230;-90
2021/12/23 14:30:41;;;;;;;15.40;7.30;;;5.40;61.60;;;;;;5054699;28;20197;-87
2021/12/23 14:33:15;;;;;;;23.40;8.23;;;5.30;60.70;;;;;;5055792;28;20559;-89
2021/12/23 14:35:55;;;;;;;20.80;7.40;;;5.40;63.60;;;;;;5055341;28;20193;-90
2021/12/23 14:38:31;;;;;;;16.80;6.60;;;5.40;65.90;;;;;;5055551;28;20275;-86
2021/12/23 14:41:08;;;;;;;19.13;6.57;;;5.40;64.10;;;;;;5036306;28;20205;-88
2021/12/23 14:44:01;;;;;;;29.57;6.73;;;5.30;62.90;;;;;;5054304;28;20193;-87
2021/12/23 14:46:50;;;;;;;26.97;8.43;;;5.20;65.50;;;;;;5029543;28;20260;-86
2021/12/23 14:52:33;;;;;;;27.20;7.97;;;5.20;66.40;;;;;;5052530;28;20288;-87
2021/12/23 14:55:04;;;;;;;24.70;8.00;;;5.10;68.40;;;;;;5052682;28;20193;-89
2021/12/23 14:57:35;;;;;;;36.20;9.63;;;5.00;67.50;;;;;;5053188;28;20229;-87
2021/12/23 15:00:09;;;;;;;26.37;10.03;;;4.90;68.80;;;;;;5054245;28;20202;-85
2021/12/23 15:02:36;;;;;;;26.47;10.77;;;4.80;69.50;;;;;;5053001;28;20316;-88
2021/12/23 15:05:21;;;;;;;37.17;9.40;;;4.70;69.40;;;;;;5053038;28;20206;-86
2021/12/23 15:07:53;;;;;;;26.00;10.90;;;4.60;69.30;;;;;;5049717;28;20230;-88
2021/12/23 15:10:42;;;;;;;41.23;14.93;;;4.70;69.40;;;;;;5052740;28;20659;-88
2021/12/23 15:13:31;;;;;;;26.13;11.10;;;4.80;69.80;;;;;;5051758;28;20232;-87
2021/12/23 15:16:10;;;;;;;41.37;12.00;;;4.80;69.50;;;;;;5051651;28;20273;-87
2021/12/23 15:21:35;;;;;;;29.63;11.43;;;4.70;73.30;;;;;;5047900;28;20717;-88
2021/12/23 15:24:21;;;;;;;33.70;12.97;;;4.60;72.40;;;;;;5056122;28;20544;-87
2021/12/23 15:26:53;;;;;;;27.40;12.10;;;4.60;75.00;;;;;;5054810;28;20308;-88
2021/12/23 15:29:23;;;;;;;25.47;11.20;;;4.50;75.80;;;;;;5056011;28;20190;-87
2021/12/23 15:31:57;;;;;;;28.40;13.73;;;4.60;76.20;;;;;;5055225;28;20217;-88
2021/12/23 15:34:25;;;;;;;23.23;10.53;;;4.70;76.80;;;;;;5055356;28;20213;-89
2021/12/23 15:36:53;;;;;;;23.67;9.73;;;4.70;74.60;;;;;;5055370;28;20711;-86
2021/12/23 15:39:27;;;;;;;27.27;10.83;;;4.70;76.10;;;;;;5055267;28;20194;-87
2021/12/23 15:41:55;;;;;;;31.70;13.40;;;4.50;76.40;;;;;;5054775;28;20814;-87
2021/12/23 15:44:24;;;;;;;27.43;13.57;;;4.50;78.20;;;;;;5055209;28;20197;-88
2021/12/23 15:46:52;;;;;;;27.37;12.80;;;4.60;78.00;;;;;;5054673;28;20575;-87
2021/12/23 15:49:19;;;;;;;18.47;11.77;;;4.70;77.00;;;;;;5037909;28;20220;-87
2021/12/23 15:51:47;;;;;;;25.77;12.53;;;4.70;76.90;;;;;;5055284;28;20225;-88
2021/12/23 15:54:15;;;;;;;19.97;9.80;;;4.70;77.60;;;;;;5056009;28;20221;-86
2021/12/23 15:56:42;;;;;;;20.80;10.97;;;4.60;76.00;;;;;;5054994;28;20221;-86
2021/12/23 15:59:09;;;;;;;26.77;11.37;;;4.70;77.10;;;;;;5055945;28;20236;-85
2021/12/23 16:01:37;;;;;;;24.47;11.57;;;4.60;77.20;;;;;;5054780;28;20253;-86
2021/12/23 16:04:05;;;;;;;23.27;11.77;;;4.70;77.40;;;;;;5055688;28;20594;-85
2021/12/23 16:09:20;;;;;;;19.87;11.27;;;4.60;77.00;;;;;;5056345;28;20204;-87
2021/12/23 16:11:48;;;;;;;16.60;9.27;;;4.50;78.20;;;;;;5054892;28;20712;-86
2021/12/23 16:14:16;;;;;;;24.47;10.73;;;4.50;77.20;;;;;;5056699;28;20217;-87
2021/12/23 16:16:43;;;;;;;28.60;9.77;;;4.50;77.50;;;;;;5054297;28;20600;-86
2021/12/23 16:19:11;;;;;;;20.10;10.27;;;4.50;78.40;;;;;;5036854;28;20190;-86
2021/12/23 16:21:38;;;;;;;19.73;10.57;;;4.40;78.30;;;;;;5054433;28;20317;-89
2021/12/23 16:24:06;;;;;;;22.83;10.03;;;4.50;78.90;;;;;;5037490;28;20546;-86
2021/12/23 16:26:35;;;;;;;22.90;10.10;;;4.40;77.80;;;;;;5054752;28;20222;-86
2021/12/23 16:29:02;;;;;;;20.23;11.10;;;4.40;77.90;;;;;;5054504;28;20546;-86
2021/12/23 16:31:31;;;;;;;21.83;10.73;;;4.40;79.50;;;;;;5054596;28;20699;-88
2021/12/23 16:33:59;;;;;;;19.13;9.60;;;4.50;79.50;;;;;;5053799;28;20226;-85
2021/12/23 16:36:28;;;;;;;24.03;10.53;;;4.50;77.40;;;;;;5053619;28;20237;-85
2021/12/23 16:38:58;;;;;;;15.90;7.97;;;4.60;76.90;;;;;;5053699;28;20202;-87
2021/12/23 16:41:27;;;;;;;16.90;8.43;;;4.70;76.30;;;;;;5053741;28;20645;-88
2021/12/23 16:43:56;;;;;;;15.17;8.53;;;4.70;74.60;;;;;;5052893;28;20613;-87
2021/12/23 16:46:23;;;;;;;11.47;7.00;;;4.80;73.00;;;;;;5052061;28;20716;-87
2021/12/23 16:48:50;;;;;;;13.83;8.27;;;4.80;69.50;;;;;;5057970;28;20198;-87
2021/12/23 16:51:17;;;;;;;8.70;5.90;;;4.90;70.40;;;;;;5055331;28;20317;-87
2021/12/23 16:53:44;;;;;;;11.37;6.17;;;5.00;69.70;;;;;;5055246;28;20232;-87
2021/12/23 16:59:01;;;;;;;5.40;3.40;;;5.10;70.70;;;;;;5029281;28;20194;-88
2021/12/23 17:01:28;;;;;;;5.00;3.40;;;5.40;70.10;;;;;;5054314;28;20221;-87
2021/12/23 17:03:55;;;;;;;2.83;2.40;;;5.50;74.00;;;;;;5054061;28;20285;-87
2021/12/23 17:06:22;;;;;;;7.57;2.80;;;5.60;75.00;;;;;;5053734;28;20669;-87
2021/12/23 17:08:49;;;;;;;6.43;2.87;;;5.70;78.90;;;;;;5053757;28;20206;-85
2021/12/23 17:11:16;;;;;;;3.47;2.33;;;5.60;82.80;;;;;;5053298;28;20706;-90
2021/12/23 17:13:49;;;;;;;3.57;2.90;;;5.60;87.70;;;;;;5053402;28;20260;-85
2021/12/23 17:16:18;;;;;;;4.40;2.60;;;5.60;90.30;;;;;;5053711;28;20336;-86
2021/12/23 17:18:57;;;;;;;6.30;2.90;;;5.70;91.30;;;;;;5053687;28;20570;-87
2021/12/23 17:24:10;;;;;;;5.43;2.90;;;5.50;93.00;;;;;;5053952;28;20201;-86
2021/12/23 17:26:37;;;;;;;3.53;2.60;;;5.40;94.00;;;;;;5052881;28;20236;-87
2021/12/23 17:29:04;;;;;;;6.43;2.83;;;5.30;94.50;;;;;;5053064;28;20293;-85
2021/12/23 17:31:33;;;;;;;6.53;2.90;;;5.30;95.10;;;;;;5053908;28;20225;-85
2021/12/23 17:34:00;;;;;;;6.10;2.87;;;5.20;95.10;;;;;;5052970;28;20226;-85
2021/12/23 17:36:27;;;;;;;7.63;3.20;;;5.10;95.10;;;;;;5053149;28;20252;-87
2021/12/23 17:38:54;;;;;;;4.10;2.87;;;5.10;95.90;;;;;;5053565;28;20202;-87
2021/12/23 17:41:22;;;;;;;4.17;3.17;;;5.10;96.30;;;;;;5052960;28;20222;-86
2021/12/23 17:43:49;;;;;;;4.47;3.13;;;5.00;96.60;;;;;;5053478;28;20233;-86
2021/12/23 17:46:17;;;;;;;5.63;2.80;;;5.10;96.60;;;;;;5053068;28;20221;-86
2021/12/23 17:48:45;;;;;;;5.47;3.03;;;5.00;96.50;;;;;;5054220;28;20313;-87
2021/12/23 17:51:13;;;;;;;6.60;3.87;;;5.00;96.70;;;;;;5054051;28;20583;-87
2021/12/23 17:53:40;;;;;;;5.73;3.37;;;5.10;97.30;;;;;;5054478;28;20226;-89
2021/12/23 17:56:08;;;;;;;4.87;3.33;;;5.10;97.20;;;;;;5057002;28;20232;-87
2021/12/23 17:58:36;;;;;;;5.60;3.60;;;5.20;97.20;;;;;;5056118;28;20200;-86
2021/12/23 18:01:05;;;;;;;5.97;3.40;;;5.30;97.20;;;;;;5061847;28;20218;-84
2021/12/23 18:03:33;;;;;;;7.63;3.73;;;5.30;96.90;;;;;;5060478;28;20218;-83
2021/12/23 18:06:02;;;;;;;7.17;4.30;;;5.30;97.00;;;;;;5060176;28;20673;-87
2021/12/23 18:08:30;;;;;;;5.20;3.70;;;5.40;97.10;;;;;;5047122;28;20289;-84
2021/12/23 18:10:57;;;;;;;5.60;4.20;;;5.40;96.70;;;;;;5023688;28;20246;-87
2021/12/23 18:13:26;;;;;;;8.87;4.80;;;5.30;96.90;;;;;;5056901;28;20217;-88
2021/12/23 18:15:54;;;;;;;7.63;4.83;;;5.40;97.10;;;;;;5055971;28;20218;-86
2021/12/23 18:18:21;;;;;;;8.80;5.13;;;5.40;97.00;;;;;;5056033;28;20193;-88
2021/12/23 18:20:48;;;;;;;6.43;4.77;;;5.40;97.10;;;;;;5056490;28;20563;-86
2021/12/23 18:23:17;;;;;;;6.83;4.40;;;5.10;96.90;;;;;;5047419;28;20221;-87
2021/12/23 18:25:45;;;;;;;9.40;4.80;;;5.00;97.30;;;;;;5037207;28;20205;-87
2021/12/23 18:28:17;;;;;;;9.23;5.10;;;5.00;98.20;;;;;;5055816;28;20627;-88
2021/12/23 18:30:45;;;;;;;8.57;5.60;;;5.20;98.40;;;;;;5056574;28;20194;-87
2021/12/23 18:33:13;;;;;;;9.87;5.47;;;5.30;97.70;;;;;;5056345;28;20221;-86
2021/12/23 18:35:43;;;;;;;9.40;5.30;;;5.40;97.60;;;;;;5057244;28;20689;-89
2021/12/23 18:38:18;;;;;;;8.47;5.30;;;5.40;97.30;;;;;;5057305;28;20619;-87
2021/12/23 18:40:48;;;;;;;8.10;5.20;;;5.40;97.10;;;;;;5056902;28;20562;-86
2021/12/23 18:43:16;;;;;;;8.07;5.47;;;5.40;96.80;;;;;;5056915;28;20240;-88
2021/12/23 18:45:44;;;;;;;7.87;6.00;;;5.40;97.10;;;;;;5056369;28;20202;-88
2021/12/23 18:48:12;;;;;;;11.43;7.20;;;5.30;96.80;;;;;;5056141;28;20222;-86
2021/12/23 18:50:41;;;;;;;11.33;6.10;;;5.10;96.70;;;;;;5056496;28;20284;-87
2021/12/23 18:53:09;;;;;;;8.87;6.13;;;5.10;97.40;;;;;;5057641;28;20271;-87
2021/12/23 18:55:37;;;;;;;9.30;6.73;;;4.90;97.30;;;;;;5061042;28;20197;-87
2021/12/23 18:58:06;;;;;;;10.30;5.70;;;4.90;97.90;;;;;;5061351;28;20356;-86
2021/12/23 19:00:43;;;;;;;12.23;6.60;;;4.80;97.80;;;;;;5060658;28;20198;-86
2021/12/23 19:03:21;;;;;;;12.33;7.70;;;4.80;98.70;;;;;;5060195;28;20260;-86
2021/12/23 19:06:06;;;;;;;9.00;5.57;;;5.10;98.60;;;;;;5059501;28;20704;-91
2021/12/23 19:08:35;;;;;;;11.50;5.70;;;5.30;97.70;;;;;;5060462;28;20212;-87
2021/12/23 19:11:04;;;;;;;14.43;8.83;;;5.40;97.20;;;;;;5059226;28;20209;-86
2021/12/23 19:13:32;;;;;;;12.47;8.27;;;5.30;97.30;;;;;;5059888;28;20309;-87
2021/12/23 19:15:59;;;;;;;12.60;9.63;;;5.50;97.30;;;;;;5057732;28;20224;-87
2021/12/23 19:18:27;;;;;;;23.27;14.00;;;5.40;96.80;;;;;;5060666;28;20248;-86
2021/12/23 19:20:54;;;;;;;21.77;15.67;;;5.40;96.80;;;;;;5061251;28;20306;-86
2021/12/23 19:23:22;;;;;;;20.63;14.70;;;5.30;96.30;;;;;;5066821;28;20241;-85
2021/12/23 19:25:49;;;;;;;13.37;7.57;;;5.10;96.50;;;;;;5063527;28;20202;-86
2021/12/23 19:28:16;;;;;;;8.77;5.33;;;5.10;96.80;;;;;;5062536;28;20297;-89
2021/12/23 19:30:45;;;;;;;6.13;4.00;;;5.20;96.20;;;;;;5062120;28;20285;-88
2021/12/23 19:33:12;;;;;;;8.60;3.63;;;5.30;95.10;;;;;;5060772;28;20225;-88
2021/12/23 19:35:39;;;;;;;5.83;3.43;;;5.40;95.20;;;;;;5041220;28;20312;-88
2021/12/23 19:38:07;;;;;;;5.50;3.67;;;5.40;94.80;;;;;;5058107;28;20308;-86
2021/12/23 19:40:36;;;;;;;4.47;2.53;;;5.60;94.60;;;;;;5046616;28;20202;-89
2021/12/23 19:43:03;;;;;;;5.23;3.53;;;5.70;94.00;;;;;;5058495;28;20746;-89
2021/12/23 19:45:31;;;;;;;8.47;5.27;;;5.80;93.70;;;;;;5059271;28;20309;-88
2021/12/23 19:48:00;;;;;;;12.70;7.63;;;6.00;92.70;;;;;;5058564;28;20225;-88
2021/12/23 19:50:29;;;;;;;4.80;2.80;;;6.30;92.00;;;;;;5059691;28;20288;-88
2021/12/23 19:52:58;;;;;;;7.87;6.00;;;6.50;90.90;;;;;;5058941;28;20282;-88
2021/12/23 19:55:25;;;;;;;4.45;2.95;;;6.60;90.90;;;;;;5059849;28;20543;-88
2021/12/23 19:57:52;;;;;;;6.47;4.10;;;6.80;90.00;;;;;;5059537;28;20245;-87
2021/12/23 20:00:22;;;;;;;2.37;1.97;;;6.90;89.60;;;;;;5039557;28;20233;-89
2021/12/23 20:02:50;;;;;;;5.90;2.57;;;7.10;85.20;;;;;;5057248;28;20217;-87
2021/12/23 20:05:19;;;;;;;4.50;2.20;;;7.20;86.00;;;;;;5059030;28;20198;-88
2021/12/23 20:07:46;;;;;;;4.43;2.70;;;7.40;82.00;;;;;;5041553;28;20221;-88
2021/12/23 20:10:17;;;;;;;2.85;1.95;;;7.60;80.90;;;;;;5060567;28;20222;-86
2021/12/23 20:12:44;;;;;;;5.13;1.83;;;7.60;79.30;;;;;;5060105;28;20221;-87
2021/12/23 20:15:11;;;;;;;3.47;1.73;;;8.00;76.00;;;;;;5059941;28;20635;-89
2021/12/23 20:17:38;;;;;;;2.85;2.05;;;8.10;76.00;;;;;;5060895;28;20317;-88
2021/12/23 20:20:06;;;;;;;3.13;2.05;;;8.00;76.60;;;;;;5061782;28;20194;-86
2021/12/23 20:22:38;;;;;;;1.90;1.60;;;8.00;77.70;;;;;;5062417;28;20232;-86
2021/12/23 20:25:08;;;;;;;3.35;1.70;;;8.10;76.40;;;;;;5062721;28;20228;-86
2021/12/23 20:27:35;;;;;;;1.92;1.63;;;8.20;75.60;;;;;;5061213;28;20257;-86
2021/12/23 20:30:05;;;;;;;3.83;1.42;;;8.40;73.30;;;;;;5060775;28;20204;-87
2021/12/23 20:32:32;;;;;;;4.07;1.95;;;8.50;73.40;;;;;;5060140;28;20222;-86
2021/12/23 20:35:00;;;;;;;2.92;1.98;;;8.50;73.40;;;;;;5062103;28;20631;-86
2021/12/23 20:37:27;;;;;;;2.13;1.52;;;8.60;73.50;;;;;;5061316;28;20316;-86
2021/12/23 20:39:56;;;;;;;2.75;1.70;;;8.60;74.80;;;;;;5027582;28;20202;-87
2021/12/23 20:42:23;;;;;;;2.95;1.45;;;8.60;73.50;;;;;;5061989;28;20218;-86
2021/12/23 20:44:50;;;;;;;2.20;1.42;;;8.80;73.70;;;;;;5061080;28;20621;-86
2021/12/23 20:47:17;;;;;;;2.15;1.67;;;8.60;78.30;;;;;;5060800;28;20285;-86
2021/12/23 20:49:44;;;;;;;1.95;1.52;;;8.50;81.00;;;;;;5062578;28;20266;-88
2021/12/23 20:52:12;;;;;;;1.60;1.45;;;8.30;83.10;;;;;;5058613;28;20221;-89
2021/12/23 20:54:48;;;;;;;1.85;1.60;;;8.30;82.60;;;;;;5057874;28;20355;-88
2021/12/23 20:57:21;;;;;;;5.97;1.98;;;8.20;84.30;;;;;;5059647;28;20245;-86
2021/12/23 20:59:48;;;;;;;2.28;1.80;;;8.20;84.80;;;;;;5060918;28;20220;-87
2021/12/23 21:02:17;;;;;;;3.80;1.97;;;8.20;85.40;;;;;;5059354;28;20245;-88
2021/12/23 21:04:44;;;;;;;1.98;1.80;;;8.20;85.10;;;;;;5057429;28;20194;-88
2021/12/23 21:07:17;;;;;;;2.13;1.60;;;8.20;84.50;;;;;;5040533;28;20229;-86
2021/12/23 21:09:45;;;;;;;3.85;1.88;;;8.20;84.30;;;;;;5060530;28;20202;-88
2021/12/23 21:12:13;;;;;;;2.17;1.80;;;8.40;84.50;;;;;;5058334;28;20557;-88
2021/12/23 21:14:42;;;;;;;3.72;1.67;;;8.40;85.80;;;;;;5057395;28;20312;-91
2021/12/23 21:17:09;;;;;;;2.63;1.90;;;8.30;88.90;;;;;;5056699;28;20261;-87
2021/12/23 21:19:37;;;;;;;2.42;1.77;;;8.10;90.70;;;;;;5059699;28;20240;-87
2021/12/23 21:22:05;;;;;;;3.85;1.60;;;8.00;91.80;;;;;;5060621;28;20229;-86
2021/12/23 21:24:34;;;;;;;3.45;1.98;;;7.90;92.60;;;;;;5061161;28;20209;-86
2021/12/23 21:27:01;;;;;;;2.53;1.90;;;7.90;92.70;;;;;;5059954;28;20225;-86
2021/12/23 21:29:28;;;;;;;1.80;1.70;;;8.00;92.60;;;;;;5058755;28;20244;-86
2021/12/23 21:31:57;;;;;;;4.83;2.20;;;7.90;92.90;;;;;;5059294;28;20236;-86
2021/12/23 21:34:24;;;;;;;3.22;2.22;;;7.90;92.20;;;;;;5041207;28;20304;-89
2021/12/23 21:36:51;;;;;;;4.53;2.90;;;7.80;92.20;;;;;;5040774;28;20301;-86
2021/12/23 21:39:18;;;;;;;5.13;2.70;;;7.80;91.90;;;;;;5060424;28;20547;-86
2021/12/23 21:41:49;;;;;;;7.72;4.00;;;7.80;91.70;;;;;;5058711;28;20614;-87
2021/12/23 21:44:17;;;;;;;3.42;2.10;;;7.80;91.90;;;;;;5058684;28;20610;-88
2021/12/23 21:46:53;;;;;;;3.87;1.90;;;7.80;91.70;;;;;;5057346;28;20219;-89
2021/12/23 21:49:25;;;;;;;4.72;1.73;;;7.90;90.80;;;;;;5049842;28;20201;-88
2021/12/23 21:51:53;;;;;;;2.42;1.90;;;8.00;90.30;;;;;;5058122;28;20217;-86
2021/12/23 21:54:20;;;;;;;2.85;1.75;;;8.20;90.30;;;;;;5058025;28;20224;-89
2021/12/23 21:56:48;;;;;;;4.38;3.22;;;8.20;90.30;;;;;;5055892;28;20308;-88
2021/12/23 21:59:16;;;;;;;4.22;2.88;;;8.20;90.20;;;;;;5056643;28;20193;-88
2021/12/23 22:01:44;;;;;;;5.20;1.77;;;8.40;88.70;;;;;;5056036;28;20241;-88
2021/12/23 22:04:12;;;;;;;2.92;2.30;;;8.40;88.50;;;;;;5057416;28;20614;-85
2021/12/23 22:06:43;;;;;;;5.70;3.17;;;8.40;88.90;;;;;;5059396;28;20221;-88
2021/12/23 22:09:11;;;;;;;3.70;1.90;;;8.50;88.80;;;;;;5057492;28;20304;-88
2021/12/23 22:11:38;;;;;;;3.78;1.80;;;8.50;88.70;;;;;;5057212;28;20253;-86
2021/12/23 22:14:05;;;;;;;3.17;1.70;;;8.50;88.20;;;;;;5061079;28;20217;-86
2021/12/23 22:25:37;;;;;;;2.33;1.58;;;8.60;86.00;;;;;;5038923;28;20162;-87
2021/12/23 22:28:11;;;;;;;7.35;4.28;;;8.60;86.40;;;;;;5042948;28;20267;-87
2021/12/23 22:30:51;;;;;;;5.32;1.70;;;8.50;86.70;;;;;;5040064;28;20696;-87
2021/12/23 22:33:34;;;;;;;4.78;2.38;;;8.50;86.60;;;;;;5038591;28;20293;-87
2021/12/23 22:36:01;;;;;;;4.38;1.85;;;8.60;85.00;;;;;;5038488;28;20217;-87
2021/12/23 22:38:28;;;;;;;4.20;1.83;;;8.70;84.10;;;;;;5052512;28;20618;-87
2021/12/23 22:58:48;;;;;;;2.88;2.05;;;8.80;82.90;;;;;;5061174;28;20229;-86
2021/12/23 23:01:15;;;;;;;4.72;2.63;;;8.80;82.90;;;;;;5047212;28;20193;-86